CheckWX is a tool to help pilots better visualize weather data.  It is not intended as a substitute for an official pre-flight weather briefing.

15:26:00 UTC

KFDY METAR
Findlay Airport
Findlay, Ohio, USA
Current

33 mins ago

KFDY 231453Z AUTO 22017G28KT 10SM CLR 24/17 A2999 RMK AO2 PK WND 21028/1421 SLP146 60000 T02390167 56017
Observed
May-23 @ 14:53 UTC
Wind
  • 220° at 17 KTS
  • Gusting to 28 KTS
Visibility
10 SM
Flight Rules
VFR
Cloud Levels
  • Clear skies
Temperature
24°C / 75°F
Dewpoint
17°C / 63°F
Humidity
65%
Altimeter
29.99" Hg
Pressure
1015.62 hPa
Previous

2 hours ago

KFDY 231353Z AUTO 22016G23KT 10SM FEW080 FEW110 22/17 A3000 RMK AO2 SLP150 T02220167
Observed
May-23 @ 13:53 UTC
Wind
  • 220° at 16 KTS
  • Gusting to 23 KTS
Visibility
10 SM
Flight Rules
VFR
Cloud Levels
  • Few at 8,000' AGL
  • Few at 11,000' AGL
Temperature
22°C / 72°F
Dewpoint
17°C / 63°F
Humidity
73%
Altimeter
30" Hg
Pressure
1015.92 hPa
Previous

3 hours ago

KFDY 231253Z AUTO 22013KT 10SM SCT110 21/17 A3000 RMK AO2 RAE13 SLP152 P0000 T02110167
Observed
May-23 @ 12:53 UTC
Wind
  • 220° at 13 KTS
Visibility
10 SM
Flight Rules
VFR
Cloud Levels
  • Scattered at 11,000' AGL
Temperature
21°C / 70°F
Dewpoint
17°C / 63°F
Humidity
78%
Altimeter
30" Hg
Pressure
1015.92 hPa
Current Rain
0.01"